Time;durP1;ratioP1;P1;durP2;ratioP2;P2;SDS_P1;SDS_P2;PMS_P1;PMS_P2;Temp;Humidity;BMP_temperature;BMP_pressure;BME280_temperature;BME280_humidity;BME280_pressure;Samples;Min_cycle;Max_cycle;Signal;HPM_P1;HPM_P2
2023/09/30 00:02:20;;;;;;;21.77;2.45;;;;;;;13.61;100.00;101285.41;4968603;28;20224;-62
2023/09/30 00:04:46;;;;;;;10.93;2.15;;;;;;;13.47;100.00;101283.38;4968276;28;20043;-62
2023/09/30 00:07:13;;;;;;;11.50;2.80;;;;;;;13.43;100.00;101304.44;4969558;28;20098;-62
2023/09/30 00:09:40;;;;;;;8.25;2.25;;;;;;;13.45;100.00;101306.94;4969820;28;20098;-64
2023/09/30 00:12:07;;;;;;;10.02;3.25;;;;;;;13.30;100.00;101307.59;4969258;28;20047;-63
2023/09/30 00:14:33;;;;;;;14.18;3.28;;;;;;;13.26;100.00;101314.31;4969870;28;20500;-62
2023/09/30 00:17:00;;;;;;;11.52;2.80;;;;;;;13.25;100.00;101318.03;4971074;28;20078;-61
2023/09/30 00:19:26;;;;;;;10.45;2.72;;;;;;;13.25;100.00;101326.13;4958375;28;20052;-63
2023/09/30 00:21:53;;;;;;;10.75;2.50;;;;;;;13.15;100.00;101317.31;4949095;29;20099;-63
2023/09/30 00:24:20;;;;;;;15.43;2.55;;;;;;;13.09;100.00;101336.81;4948830;29;20077;-65
2023/09/30 00:26:47;;;;;;;10.60;2.65;;;;;;;12.90;100.00;101323.59;4947697;29;20048;-63
2023/09/30 00:29:13;;;;;;;15.73;2.50;;;;;;;12.84;100.00;101323.22;4948688;29;20071;-61
2023/09/30 00:31:40;;;;;;;13.15;3.00;;;;;;;12.79;100.00;101339.00;4948980;28;20878;-62
2023/09/30 00:34:08;;;;;;;14.82;2.88;;;;;;;12.69;100.00;101338.25;4949592;29;20047;-62
2023/09/30 00:36:36;;;;;;;14.38;2.85;;;;;;;12.62;100.00;101340.72;4950171;29;20053;-62
2023/09/30 00:39:03;;;;;;;11.70;3.05;;;;;;;12.61;100.00;101346.28;4950671;29;20048;-62
2023/09/30 00:41:30;;;;;;;7.65;2.95;;;;;;;12.58;100.00;101351.97;4950041;29;20103;-62
2023/09/30 00:43:57;;;;;;;13.65;3.00;;;;;;;12.47;100.00;101350.38;4939518;29;20592;-67
2023/09/30 00:46:30;;;;;;;14.95;3.20;;;;;;;12.39;100.00;101347.66;4934207;29;20055;-67
2023/09/30 00:48:59;;;;;;;9.70;3.22;;;;;;;12.37;100.00;101355.88;4934515;29;20043;-66
2023/09/30 00:51:26;;;;;;;13.07;3.35;;;;;;;12.26;100.00;101355.28;4934177;29;20485;-66
2023/09/30 00:53:56;;;;;;;13.80;2.70;;;;;;;12.12;100.00;101351.28;4934514;29;20055;-65
2023/09/30 00:56:26;;;;;;;14.35;3.42;;;;;;;12.10;100.00;101354.13;4934250;29;20051;-67
2023/09/30 00:58:55;;;;;;;18.73;3.47;;;;;;;12.09;100.00;101359.66;4934848;29;20055;-65
2023/09/30 01:01:23;;;;;;;12.52;3.25;;;;;;;12.08;100.00;101353.44;4934830;29;20043;-66
2023/09/30 01:03:50;;;;;;;17.05;3.53;;;;;;;11.96;100.00;101365.44;4934396;29;20075;-66
2023/09/30 01:09:57;;;;;;;16.20;3.55;;;;;;;11.77;100.00;101358.38;4933208;29;20074;-66
2023/09/30 01:12:25;;;;;;;17.27;3.58;;;;;;;11.72;100.00;101359.81;4932984;29;20044;-65
2023/09/30 01:14:57;;;;;;;13.95;3.63;;;;;;;11.61;100.00;101377.81;4932383;29;20139;-65
2023/09/30 01:17:24;;;;;;;14.77;3.00;;;;;;;11.55;100.00;101364.13;4932246;29;20449;-67
2023/09/30 01:19:52;;;;;;;17.83;3.67;;;;;;;11.56;100.00;101360.47;4947899;28;20043;-65
2023/09/30 01:22:18;;;;;;;16.98;4.35;;;;;;;11.57;100.00;101375.59;4951419;28;20079;-65
2023/09/30 01:24:47;;;;;;;19.02;3.97;;;;;;;11.49;100.00;101373.66;4952281;28;20107;-65
2023/09/30 01:27:17;;;;;;;19.15;4.38;;;;;;;11.36;100.00;101365.94;4951764;28;20059;-66
2023/09/30 01:29:43;;;;;;;15.05;3.83;;;;;;;11.15;100.00;101359.97;4952358;28;20047;-65
2023/09/30 01:32:12;;;;;;;14.35;3.63;;;;;;;11.05;100.00;101348.44;4952288;28;20047;-66
2023/09/30 01:34:39;;;;;;;17.63;3.88;;;;;;;10.88;100.00;101328.56;4952641;28;20455;-66
2023/09/30 01:37:06;;;;;;;16.70;4.25;;;;;;;10.63;100.00;101304.09;4952478;28;20385;-65
2023/09/30 01:39:33;;;;;;;14.30;3.72;;;;;;;10.49;100.00;101291.94;4952414;28;20075;-65
2023/09/30 01:42:00;;;;;;;20.50;4.18;;;;;;;10.45;100.00;101284.34;4952639;28;20047;-66
2023/09/30 01:44:27;;;;;;;16.52;3.60;;;;;;;10.24;100.00;101265.78;4951977;28;20058;-65
2023/09/30 01:46:54;;;;;;;19.40;3.95;;;;;;;10.10;100.00;101247.44;4952170;28;20411;-65
2023/09/30 01:49:24;;;;;;;15.82;3.83;;;;;;;9.90;100.00;101219.84;4958011;28;20051;-63
2023/09/30 01:51:50;;;;;;;16.48;4.40;;;;;;;9.86;100.00;101224.66;4967726;28;20059;-62
2023/09/30 01:54:17;;;;;;;19.80;4.00;;;;;;;9.69;100.00;101203.94;4967842;28;20047;-62
2023/09/30 01:56:44;;;;;;;24.17;4.72;;;;;;;9.64;100.00;101200.81;4967356;28;20051;-62
2023/09/30 01:59:10;;;;;;;19.85;4.40;;;;;;;9.61;100.00;101203.78;4965683;28;20075;-62
2023/09/30 02:01:37;;;;;;;20.55;3.85;;;;;;;9.20;100.00;101152.19;4967072;28;20052;-63
2023/09/30 02:04:06;;;;;;;15.13;3.65;;;;;;;8.99;100.00;101122.88;4968010;28;20074;-65
2023/09/30 02:06:34;;;;;;;13.20;3.80;;;;;;;8.80;100.00;101102.31;4967538;28;20051;-62
2023/09/30 02:09:01;;;;;;;15.20;3.83;;;;;;;8.20;100.00;101013.28;4967183;28;20054;-63
2023/09/30 02:11:28;;;;;;;18.75;4.47;;;;;;;7.98;100.00;100968.91;4968347;28;20055;-63
2023/09/30 02:13:55;;;;;;;23.42;4.25;;;;;;;7.30;100.00;100861.91;4967569;28;20047;-62
2023/09/30 02:16:22;;;;;;;16.13;3.63;;;;;;;7.43;100.00;100898.06;4966647;28;20051;-64
2023/09/30 02:18:53;;;;;;;16.77;3.67;;;;;;;6.53;100.00;100761.06;4967863;28;20062;-63
2023/09/30 02:21:21;;;;;;;15.70;4.05;;;;;;;5.45;100.00;100591.81;4967554;28;20054;-62
2023/09/30 02:23:54;;;;;;;17.17;4.05;;;;;;;4.53;100.00;100439.22;4966950;28;20129;-62
2023/09/30 02:26:25;;;;;;;18.27;4.00;;;;;;;2.25;100.00;100082.13;4966858;28;20047;-63
2023/09/30 02:28:52;;;;;;;19.58;3.88;;;;;;;2.80;100.00;100175.69;4967110;28;20074;-64
2023/09/30 02:31:19;;;;;;;17.73;3.85;;;;;;;0.94;100.00;99874.72;4967882;28;20102;-61
2023/09/30 02:33:46;;;;;;;17.85;3.92;;;;;;;-4.36;100.00;99003.28;4965768;28;20090;-62
2023/09/30 02:36:13;;;;;;;23.10;4.55;;;;;;;-1.73;100.00;99456.59;4964883;28;20059;-62
2023/09/30 02:38:41;;;;;;;17.30;4.38;;;;;;;-4.89;100.00;98950.28;4965929;28;20066;-62
2023/09/30 02:41:07;;;;;;;22.52;4.43;;;;;;;-2.72;100.00;99306.19;4965766;28;20058;-63
2023/09/30 02:43:34;;;;;;;26.08;4.47;;;;;;;-10.78;100.00;97998.53;4966618;28;20050;-66
2023/09/30 02:46:00;;;;;;;22.02;4.63;;;;;;;-10.91;100.00;97984.66;4966902;28;20051;-62
2023/09/30 02:48:27;;;;;;;16.98;4.78;;;;;;;-11.59;100.00;97886.94;4966686;28;20047;-63
2023/09/30 02:50:55;;;;;;;18.10;3.90;;;;;;;-28.59;100.00;95161.81;4967555;28;20058;-61
2023/09/30 02:53:22;;;;;;;18.13;4.10;;;;;;;-50.04;100.00;91766.97;4966878;28;20096;-64
2023/09/30 02:55:49;;;;;;;23.25;4.30;;;;;;;-149.70;100.00;77286.63;4966665;28;20115;-63
2023/09/30 02:58:18;;;;;;;22.40;4.18;;;;;;;-149.70;100.00;77292.72;4965820;28;20067;-63
2023/09/30 03:00:49;;;;;;;21.08;4.20;;;;;;;-149.70;100.00;77288.66;4966309;28;20043;-62
2023/09/30 03:03:15;;;;;;;23.65;4.30;;;;;;;-149.70;100.00;77292.72;4966618;28;20106;-63
2023/09/30 03:05:42;;;;;;;19.13;4.80;;;;;;;-149.70;100.00;77300.88;4967512;28;20055;-62
2023/09/30 03:08:10;;;;;;;22.48;4.45;;;;;;;-149.70;100.00;77309.00;4966104;28;20043;-61
2023/09/30 03:10:40;;;;;;;18.00;5.03;;;;;;;-149.70;100.00;77317.13;4967887;28;20047;-64
2023/09/30 03:13:08;;;;;;;24.77;4.97;;;;;;;-149.70;100.00;77321.19;4967260;28;20094;-63
2023/09/30 03:15:35;;;;;;;23.58;4.90;;;;;;;-149.70;100.00;77325.28;4958986;28;20050;-65
2023/09/30 03:18:03;;;;;;;19.20;4.13;;;;;;;-149.70;100.00;77335.44;4950883;28;20054;-65
2023/09/30 03:20:30;;;;;;;22.15;4.80;;;;;;;-149.70;100.00;77333.41;4951442;28;20125;-67
2023/09/30 03:22:57;;;;;;;19.08;4.13;;;;;;;-149.70;100.00;77343.56;4950017;28;20054;-65
2023/09/30 03:25:24;;;;;;;24.80;4.78;;;;;;;-149.70;100.00;77341.53;4949976;28;20051;-66
2023/09/30 03:27:50;;;;;;;31.98;5.30;;;;;;;-149.70;100.00;77353.75;4951039;28;20554;-65
2023/09/30 03:30:19;;;;;;;18.65;4.32;;;;;;;-149.70;100.00;77363.91;4948409;28;20047;-65
2023/09/30 03:32:47;;;;;;;23.67;4.90;;;;;;;-149.70;100.00;77359.84;4949939;28;20135;-70
2023/09/30 03:35:16;;;;;;;27.55;4.95;;;;;;;-149.70;100.00;77365.94;4949861;28;20047;-74
2023/09/30 03:37:44;;;;;;;31.88;5.35;;;;;;;-149.70;100.00;77357.81;4951207;28;20047;-69
2023/09/30 03:40:13;;;;;;;18.27;4.22;;;;;;;-149.70;100.00;77365.94;4953475;28;20147;-71
2023/09/30 03:42:44;;;;;;;18.55;4.80;;;;;;;-149.70;100.00;77365.94;4952768;28;20415;-69
2023/09/30 03:45:13;;;;;;;25.23;4.67;;;;;;;-149.70;100.00;77372.06;4953223;28;20080;-71
2023/09/30 03:47:41;;;;;;;24.10;5.38;;;;;;;-149.70;100.00;77372.06;4953472;28;20468;-71
2023/09/30 03:50:14;;;;;;;21.70;4.18;;;;;;;-149.70;100.00;77382.22;4951306;28;20411;-71
2023/09/30 03:52:44;;;;;;;18.55;4.60;;;;;;;-149.70;100.00;77388.31;4954249;28;20066;-73
2023/09/30 03:55:15;;;;;;;24.65;4.75;;;;;;;-149.70;100.00;77392.38;4953123;28;20122;-71
2023/09/30 03:57:42;;;;;;;22.30;5.47;;;;;;;-149.70;100.00;77398.50;4954018;28;20054;-71
2023/09/30 04:00:16;;;;;;;28.60;6.13;;;;;;;-149.70;100.00;77402.56;4951633;28;20051;-70
2023/09/30 04:02:43;;;;;;;24.38;5.10;;;;;;;-149.70;100.00;77410.69;4954880;28;20047;-70
2023/09/30 04:05:11;;;;;;;23.27;4.93;;;;;;;-149.70;100.00;77412.72;4952600;28;20106;-71
2023/09/30 04:07:38;;;;;;;25.02;4.88;;;;;;;-149.70;100.00;77412.72;4953206;28;20106;-69
2023/09/30 04:10:05;;;;;;;22.38;5.22;;;;;;;-149.70;100.00;77410.69;4951924;28;20149;-68
2023/09/30 04:12:32;;;;;;;34.03;14.00;;;;;;;-149.70;100.00;77426.97;4954841;28;20051;-72
2023/09/30 04:15:00;;;;;;;31.95;9.15;;;;;;;-149.70;100.00;77431.03;4954349;28;20047;-66
2023/09/30 04:17:27;;;;;;;24.35;5.95;;;;;;;-149.70;100.00;77435.09;4954003;28;20389;-65
2023/09/30 04:19:54;;;;;;;26.55;5.57;;;;;;;-149.70;100.00;77433.06;4954954;28;20053;-66
2023/09/30 04:22:24;;;;;;;26.20;5.32;;;;;;;-149.70;100.00;77439.16;4953156;28;20138;-65
2023/09/30 04:24:51;;;;;;;29.00;5.13;;;;;;;-149.70;100.00;77435.09;4954594;28;20047;-65
2023/09/30 04:27:19;;;;;;;19.35;4.82;;;;;;;-149.70;100.00;77445.25;4954504;28;20518;-65
2023/09/30 04:29:46;;;;;;;24.73;5.90;;;;;;;-149.70;100.00;77451.38;4954074;28;20070;-66
2023/09/30 04:32:13;;;;;;;22.73;4.93;;;;;;;-149.70;100.00;77455.44;4966595;28;20082;-61
2023/09/30 04:34:40;;;;;;;18.95;4.72;;;;;;;-149.70;100.00;77451.38;4969793;28;20050;-63
2023/09/30 04:37:12;;;;;;;30.35;5.65;;;;;;;-149.70;100.00;77453.41;4968930;28;20047;-62
2023/09/30 04:39:38;;;;;;;26.40;5.28;;;;;;;-149.70;100.00;77455.44;4968746;28;20054;-63
2023/09/30 04:42:05;;;;;;;17.30;5.22;;;;;;;-149.70;100.00;77459.50;4967522;28;20043;-64
2023/09/30 04:44:31;;;;;;;25.60;5.35;;;;;;;-149.70;100.00;77467.63;4969157;28;20051;-63
2023/09/30 04:46:58;;;;;;;17.88;5.93;;;;;;;-149.70;100.00;77463.56;4968621;28;20061;-62
2023/09/30 04:49:24;;;;;;;25.92;5.63;;;;;;;-149.70;100.00;77459.50;4969061;28;20051;-61
2023/09/30 04:51:51;;;;;;;28.90;5.95;;;;;;;-149.70;100.00;77459.50;4969866;28;20051;-62
2023/09/30 04:54:18;;;;;;;24.52;5.50;;;;;;;-149.70;100.00;77467.63;4968377;28;20051;-64
2023/09/30 04:56:46;;;;;;;31.40;5.63;;;;;;;-149.70;100.00;77469.66;4970580;28;20102;-61
2023/09/30 04:59:13;;;;;;;25.40;6.18;;;;;;;-149.70;100.00;77475.78;4970309;28;20048;-62
2023/09/30 05:01:40;;;;;;;29.63;6.10;;;;;;;-149.70;100.00;77475.78;4967662;28;20047;-64
2023/09/30 05:04:07;;;;;;;27.08;6.30;;;;;;;-149.70;100.00;77469.66;4966557;28;20078;-63
2023/09/30 05:06:33;;;;;;;27.85;5.00;;;;;;;-149.70;100.00;77479.84;4969879;28;20047;-63
2023/09/30 05:09:00;;;;;;;24.50;5.18;;;;;;;-149.70;100.00;77481.88;4968913;29;20122;-62
2023/09/30 05:11:27;;;;;;;24.20;5.47;;;;;;;-149.70;100.00;77477.81;4969762;28;20047;-63
2023/09/30 05:13:54;;;;;;;28.25;5.38;;;;;;;-149.70;100.00;77483.91;4969129;28;20047;-64
2023/09/30 05:16:21;;;;;;;21.42;5.07;;;;;;;-149.70;100.00;77492.03;4969437;28;20055;-62
2023/09/30 05:18:48;;;;;;;26.70;5.05;;;;;;;-149.70;100.00;77492.03;4969166;28;20178;-64
2023/09/30 05:21:15;;;;;;;31.02;6.05;;;;;;;-149.70;100.00;77496.13;4969029;28;20071;-62
2023/09/30 05:23:42;;;;;;;28.60;5.43;;;;;;;-149.70;100.00;77483.91;4969418;28;20051;-63
2023/09/30 05:26:09;;;;;;;21.50;4.78;;;;;;;-149.70;100.00;77496.13;4968914;28;20419;-62
2023/09/30 05:28:35;;;;;;;25.00;5.82;;;;;;;-149.70;100.00;77498.16;4968878;28;20490;-63
2023/09/30 05:31:02;;;;;;;26.83;5.03;;;;;;;-149.70;100.00;77502.22;4969258;28;20071;-64
2023/09/30 05:33:29;;;;;;;20.67;5.07;;;;;;;-149.70;100.00;77504.25;4968562;28;20054;-63
2023/09/30 05:35:56;;;;;;;21.10;5.50;;;;;;;-149.70;100.00;77510.34;4969138;28;20044;-63
2023/09/30 05:38:23;;;;;;;21.80;5.38;;;;;;;-149.70;100.00;77508.31;4968891;28;20054;-62
2023/09/30 05:40:49;;;;;;;28.48;5.22;;;;;;;-149.70;100.00;77508.31;4961208;28;20126;-65
2023/09/30 05:43:17;;;;;;;22.73;4.60;;;;;;;-149.70;100.00;77508.31;4952914;28;20484;-65
2023/09/30 05:45:48;;;;;;;28.98;6.13;;;;;;;-149.70;100.00;77498.16;4952824;28;20042;-65
2023/09/30 05:48:16;;;;;;;19.85;5.35;;;;;;;-149.70;100.00;77496.13;4952774;28;20062;-65
2023/09/30 05:50:44;;;;;;;31.88;5.90;;;;;;;-149.70;100.00;77498.16;4953543;28;20047;-70
2023/09/30 05:53:11;;;;;;;24.55;5.25;;;;;;;-149.70;100.00;77479.84;4951284;28;20233;-71
2023/09/30 05:55:38;;;;;;;23.17;5.13;;;;;;;-149.70;100.00;77467.63;4952881;28;20511;-71
2023/09/30 05:58:05;;;;;;;22.88;5.13;;;;;;;-149.70;100.00;77473.75;4952911;28;20046;-69
2023/09/30 06:00:34;;;;;;;20.10;5.05;;;;;;;-149.70;100.00;77459.50;4952366;28;20058;-69
2023/09/30 06:03:01;;;;;;;27.30;5.38;;;;;;;-149.70;100.00;77437.13;4951642;28;20079;-68
2023/09/30 06:05:30;;;;;;;22.30;5.20;;;;;;;-149.70;100.00;77433.06;4952730;28;20126;-70
2023/09/30 06:07:59;;;;;;;24.38;4.78;;;;;;;-149.70;100.00;77424.94;4952819;28;20050;-70
2023/09/30 06:10:26;;;;;;;19.92;5.22;;;;;;;-149.70;100.00;77410.69;4952587;28;20070;-71
2023/09/30 06:12:54;;;;;;;24.15;5.10;;;;;;;-149.70;100.00;77408.66;4952917;28;20047;-71
2023/09/30 06:15:25;;;;;;;25.58;5.28;;;;;;;-149.70;100.00;77404.59;4953112;28;20476;-71
2023/09/30 06:17:53;;;;;;;29.25;4.97;;;;;;;-149.70;100.00;77388.31;4952795;28;20439;-73
2023/09/30 06:20:22;;;;;;;24.33;5.20;;;;;;;-1.80;100.00;99633.31;4952411;28;20099;-70
2023/09/30 06:22:49;;;;;;;22.25;5.13;;;;;;;1.45;100.00;100161.50;4952305;28;20212;-70
2023/09/30 06:25:17;;;;;;;32.22;5.93;;;;;;;3.23;100.00;100447.03;4952255;28;20054;-66
2023/09/30 06:27:45;;;;;;;24.50;5.18;;;;;;;4.71;100.00;100703.41;4953291;28;20315;-66
2023/09/30 06:30:13;;;;;;;21.17;5.93;;;;;;;5.14;100.00;100760.25;4952155;28;20046;-66
2023/09/30 06:32:40;;;;;;;18.42;4.93;;;;;;;6.64;100.00;101020.44;4952853;28;20051;-66
2023/09/30 06:35:10;;;;;;;20.58;4.75;;;;;;;7.17;100.00;101103.09;4952954;28;20047;-66
2023/09/30 06:37:37;;;;;;;47.95;20.05;;;;;;;7.70;100.00;101187.66;4950866;28;20464;-65
2023/09/30 06:40:07;;;;;;;40.78;13.57;;;;;;;7.81;100.00;101200.09;4952709;28;20157;-66
2023/09/30 06:42:35;;;;;;;28.42;7.90;;;;;;;7.92;100.00;101224.13;4952422;28;20043;-67
2023/09/30 06:45:06;;;;;;;20.17;4.78;;;;;;;7.95;100.00;101231.88;4952246;28;20047;-66
2023/09/30 06:47:36;;;;;;;16.83;4.60;;;;;;;8.48;100.00;101295.91;4952948;28;20055;-65
2023/09/30 06:50:08;;;;;;;18.70;4.60;;;;;;;9.00;100.00;101362.75;4952153;28;20472;-66
2023/09/30 06:52:38;;;;;;;23.55;4.55;;;;;;;9.29;100.00;101408.41;4951830;28;20070;-65
2023/09/30 06:55:06;;;;;;;21.67;4.97;;;;;;;8.75;100.00;101364.06;4952251;28;20043;-66
2023/09/30 06:57:37;;;;;;;25.40;5.32;;;;;;;9.06;100.00;101392.50;4952949;28;20488;-66
2023/09/30 07:00:11;;;;;;;25.95;5.00;;;;;;;9.13;100.00;101395.50;4952408;28;20047;-66
2023/09/30 07:02:39;;;;;;;25.73;5.75;;;;;;;9.41;100.00;101418.03;4951954;28;20436;-66
2023/09/30 07:05:12;;;;;;;27.77;4.95;;;;;;;9.70;100.00;101454.78;4951464;28;20051;-66
2023/09/30 07:07:40;;;;;;;24.05;4.63;;;;;;;10.58;100.00;101557.72;4951783;28;20078;-66
2023/09/30 07:10:07;;;;;;;18.88;4.90;;;;;;;10.87;100.00;101609.59;4951888;28;20055;-66
2023/09/30 07:12:35;;;;;;;24.25;5.07;;;;;;;11.19;100.00;101627.25;4955064;28;20054;-65
2023/09/30 07:15:04;;;;;;;25.65;4.70;;;;;;;11.10;100.00;101622.72;4955880;28;20448;-65
2023/09/30 07:17:31;;;;;;;20.30;5.10;;;;;;;11.52;100.00;101647.44;4955508;28;20047;-66
2023/09/30 07:19:58;;;;;;;25.25;5.13;;;;;;;11.85;100.00;101677.53;4940362;28;20526;-67
2023/09/30 07:22:24;;;;;;;21.23;5.55;;;;;;;12.11;100.00;101699.28;4936356;29;20055;-68
2023/09/30 07:25:09;;;;;;;18.88;5.13;;;;;;;12.27;100.00;101715.63;4936599;29;20054;-66
2023/09/30 07:27:36;;;;;;;22.20;4.80;;;;;;;12.16;100.00;101715.81;4936729;29;20067;-67
2023/09/30 07:30:05;;;;;;;20.30;4.63;;;;;;;12.06;100.00;101723.06;4936407;29;20051;-67
2023/09/30 07:32:33;;;;;;;19.17;5.00;;;;;;;12.44;100.00;101729.31;4936925;29;20043;-67
2023/09/30 07:34:59;;;;;;;22.50;4.38;;;;;;;12.35;100.00;101734.59;4936426;29;20419;-69
2023/09/30 07:37:26;;;;;;;25.90;4.45;;;;;;;12.44;100.00;101738.22;4935268;28;20043;-66
2023/09/30 07:39:52;;;;;;;17.45;4.60;;;;;;;12.62;100.00;101740.97;4935762;29;20092;-67
2023/09/30 07:42:19;;;;;;;20.05;4.28;;;;;;;12.79;100.00;101753.69;4933906;29;20047;-65
2023/09/30 07:44:46;;;;;;;21.45;5.20;;;;;;;12.71;100.00;101758.09;4935179;29;20054;-67
2023/09/30 07:47:12;;;;;;;27.10;6.18;;;;;;;12.58;100.00;101753.88;4936215;29;20099;-67
2023/09/30 07:49:39;;;;;;;20.35;4.30;;;;;;;12.51;100.00;101757.31;4935231;29;20051;-65
2023/09/30 07:52:06;;;;;;;29.92;5.43;;;;;;;12.29;100.00;101751.31;4935259;29;20110;-68
2023/09/30 07:54:32;;;;;;;19.77;5.38;;;;;;;11.95;100.00;101758.19;4935074;29;20048;-66
2023/09/30 07:56:59;;;;;;;22.25;4.55;;;;;;;11.92;100.00;101746.72;4934366;29;20074;-65
2023/09/30 07:59:27;;;;;;;24.63;5.38;;;;;;;12.00;100.00;101750.53;4935224;29;20043;-66
2023/09/30 08:01:53;;;;;;;18.95;3.85;;;;;;;11.86;100.00;101730.31;4935809;29;20059;-66
2023/09/30 08:04:20;;;;;;;16.77;4.15;;;;;;;11.96;100.00;101743.75;4940006;29;20043;-67
2023/09/30 08:06:47;;;;;;;30.00;5.43;;;;;;;11.95;100.00;101750.13;4935589;29;20473;-66
2023/09/30 08:09:14;;;;;;;19.58;4.88;;;;;;;12.14;100.00;101758.13;4934646;29;20412;-66
2023/09/30 08:11:41;;;;;;;20.67;5.13;;;;;;;12.13;100.00;101756.44;4934980;29;20473;-66
2023/09/30 08:14:09;;;;;;;19.02;4.60;;;;;;;12.18;100.00;101759.56;4935381;29;20568;-66
2023/09/30 08:16:36;;;;;;;25.55;5.20;;;;;;;12.28;100.00;101755.00;4934366;29;20071;-67
2023/09/30 08:19:05;;;;;;;22.95;5.45;;;;;;;12.86;100.00;101775.47;4943525;28;20051;-66
2023/09/30 08:21:31;;;;;;;24.55;4.85;;;;;;;13.18;100.00;101785.81;4953571;28;20047;-66
2023/09/30 08:23:59;;;;;;;18.95;4.82;;;;;;;13.56;100.00;101792.78;4953455;28;20043;-67
2023/09/30 08:26:25;;;;;;;24.77;5.38;;;;;;;13.29;100.00;101793.66;4952771;28;20051;-67
2023/09/30 08:28:52;;;;;;;22.48;5.18;;;;;;;13.87;100.00;101808.56;4954200;28;20121;-67
2023/09/30 08:31:21;;;;;;;21.45;4.88;;;;;;;14.28;100.00;101807.03;4953727;28;20051;-66
2023/09/30 08:33:48;;;;;;;22.83;5.22;;;;;;;14.63;100.00;101813.31;4953312;28;20055;-68
2023/09/30 08:36:14;;;;;;;19.33;4.32;;;;;;;15.08;100.00;101808.66;4953324;28;20443;-67
2023/09/30 08:38:41;;;;;;;18.55;4.55;;;;;;;14.83;100.00;101815.81;4953905;28;20098;-69
2023/09/30 08:41:09;;;;;;;18.83;4.18;;;;;;;14.69;100.00;101818.09;4951425;28;20051;-66
2023/09/30 08:43:38;;;;;;;26.35;5.07;;;;;;;14.80;100.00;101808.03;4953416;28;20907;-66
2023/09/30 08:46:06;;;;;;;19.33;5.05;;;;;;;15.01;100.00;101817.41;4951458;28;20051;-67
2023/09/30 08:48:34;;;;;;;21.15;4.45;;;;;;;15.33;100.00;101814.97;4953931;28;20363;-67
2023/09/30 08:51:01;;;;;;;25.52;4.55;;;;;;;15.23;100.00;101813.28;4953367;28;20419;-69
2023/09/30 08:53:34;;;;;;;18.15;4.07;;;;;;;14.98;100.00;101812.38;4952141;28;20488;-66
2023/09/30 08:56:06;;;;;;;15.15;4.90;;;;;;;15.12;100.00;101813.59;4967560;28;20051;-66
2023/09/30 08:58:33;;;;;;;23.80;5.30;;;;;;;15.17;100.00;101816.66;4953112;28;20047;-66
2023/09/30 09:01:01;;;;;;;24.48;6.95;;;;;;;15.74;100.00;101809.69;4953177;28;20074;-68
2023/09/30 09:03:29;;;;;;;19.27;5.80;;;;;;;16.40;100.00;101817.63;4951637;28;20057;-66
2023/09/30 09:05:56;;;;;;;24.20;8.05;;;;;;;17.19;100.00;101808.72;4951978;28;20074;-66
2023/09/30 09:08:26;;;;;;;24.23;4.90;;;;;;;18.07;100.00;101811.88;4951763;28;20055;-67
2023/09/30 09:11:00;;;;;;;14.20;3.97;;;;;;;18.46;100.00;101805.41;4953751;28;20098;-67
2023/09/30 09:13:28;;;;;;;17.85;4.75;;;;;;;18.87;92.59;101804.94;4950507;28;20043;-67
2023/09/30 09:16:08;;;;;;;17.08;4.30;;;;;;;19.59;84.24;101811.44;4951443;28;20408;-66
2023/09/30 09:18:38;;;;;;;19.73;3.93;;;;;;;20.02;77.90;101800.59;4948630;28;20058;-67
2023/09/30 09:21:12;;;;;;;13.38;4.22;;;;;;;21.32;70.19;101802.63;4932866;29;20279;-67
2023/09/30 09:23:45;;;;;;;14.48;3.92;;;;;;;21.49;66.27;101793.00;4933313;29;20516;-66
2023/09/30 09:26:26;;;;;;;14.90;4.43;;;;;;;21.43;64.68;101793.84;4933427;28;20126;-67
2023/09/30 09:29:04;;;;;;;17.60;4.03;;;;;;;21.09;66.50;101795.59;4935036;29;20518;-66
2023/09/30 09:31:34;;;;;;;25.83;4.78;;;;;;;20.03;69.66;101800.38;4933761;28;20047;-66
2023/09/30 09:34:14;;;;;;;16.20;3.40;;;;;;;21.24;66.59;101808.28;4934961;29;20074;-67
2023/09/30 09:36:43;;;;;;;14.50;4.22;;;;;;;20.98;67.90;101804.38;4933621;29;20054;-66
2023/09/30 09:39:13;;;;;;;19.83;4.72;;;;;;;21.61;63.38;101817.81;4933297;29;20055;-66
2023/09/30 09:41:54;;;;;;;11.10;3.70;;;;;;;23.15;56.66;101806.53;4933473;29;20515;-67
2023/09/30 09:44:22;;;;;;;16.85;3.70;;;;;;;23.05;55.12;101808.88;4933981;29;20063;-66
2023/09/30 09:46:52;;;;;;;14.35;3.85;;;;;;;23.68;53.93;101808.97;4934327;29;20047;-67
2023/09/30 09:49:20;;;;;;;17.65;4.18;;;;;;;24.34;52.00;101796.63;4934319;29;20052;-67
2023/09/30 09:51:48;;;;;;;13.18;3.67;;;;;;;23.85;50.73;101794.75;4934354;29;20103;-66
2023/09/30 09:54:16;;;;;;;12.27;3.95;;;;;;;24.25;49.02;101800.72;4934228;29;20540;-66
2023/09/30 09:56:49;;;;;;;17.08;4.18;;;;;;;23.33;51.77;101805.84;4934283;29;20382;-66
2023/09/30 09:59:16;;;;;;;13.50;3.53;;;;;;;22.65;52.54;101794.50;4932589;29;20394;-66
2023/09/30 10:01:45;;;;;;;19.17;4.20;;;;;;;22.47;53.78;101797.91;4932533;29;20071;-66
2023/09/30 10:04:15;;;;;;;14.60;3.80;;;;;;;22.42;54.79;101787.56;4931372;29;20046;-66
2023/09/30 10:06:48;;;;;;;15.27;4.00;;;;;;;23.88;50.71;101791.56;4932897;29;20063;-66
2023/09/30 10:09:17;;;;;;;15.27;4.00;;;;;;;23.70;49.83;101801.34;4932042;29;20056;-67
2023/09/30 10:11:44;;;;;;;12.88;3.22;;;;;;;23.03;49.55;101789.94;4932603;29;20052;-66
2023/09/30 10:14:30;;;;;;;9.93;3.03;;;;;;;23.07;49.76;101792.25;4933125;29;20047;-67
2023/09/30 10:16:56;;;;;;;12.43;3.10;;;;;;;23.39;49.10;101783.03;4933122;29;20044;-66
2023/09/30 10:19:23;;;;;;;14.90;3.60;;;;;;;23.58;47.82;101783.97;4931633;29;20050;-67
2023/09/30 10:22:24;;;;;;;15.13;3.50;;;;;;;22.66;49.64;101791.53;4932489;29;20047;-67
2023/09/30 10:24:53;;;;;;;16.10;3.17;;;;;;;21.75;50.53;101791.38;4932619;29;20051;-67
2023/09/30 10:27:28;;;;;;;15.52;3.25;;;;;;;21.17;51.55;101785.56;4933226;29;20520;-68
2023/09/30 10:30:05;;;;;;;17.00;3.47;;;;;;;20.80;54.34;101794.00;4933529;29;20059;-67
2023/09/30 10:32:50;;;;;;;13.18;3.70;;;;;;;19.91;57.42;101796.50;4933066;29;20047;-66
2023/09/30 10:35:18;;;;;;;17.95;3.60;;;;;;;20.88;57.18;101790.28;4934626;29;20106;-65
2023/09/30 10:37:46;;;;;;;11.85;3.67;;;;;;;21.52;55.00;101787.13;4933086;29;20392;-65
2023/09/30 10:40:33;;;;;;;11.10;2.85;;;;;;;22.22;52.61;101793.09;4933621;29;20107;-66
2023/09/30 10:43:02;;;;;;;11.70;2.78;;;;;;;22.63;51.56;101804.81;4934573;29;20488;-66
2023/09/30 10:45:42;;;;;;;12.20;3.03;;;;;;;21.76;50.68;101795.78;4934541;29;20051;-65
2023/09/30 10:48:24;;;;;;;10.30;3.10;;;;;;;21.81;50.90;101801.50;4937249;29;20043;-66
2023/09/30 10:50:57;;;;;;;12.45;3.28;;;;;;;22.27;49.78;101801.47;4938742;29;20040;-66
2023/09/30 10:53:23;;;;;;;11.35;2.95;;;;;;;22.91;48.14;101796.28;4937888;29;20425;-64
2023/09/30 10:55:58;;;;;;;16.75;2.95;;;;;;;22.45;48.02;101802.72;4939365;29;20051;-65
2023/09/30 10:58:52;;;;;;;15.05;3.53;;;;;;;21.17;51.11;101802.78;4939702;29;20055;-65
2023/09/30 11:01:21;;;;;;;14.10;3.05;;;;;;;21.19;51.28;101795.25;4935864;28;20043;-65
2023/09/30 11:03:51;;;;;;;14.00;3.53;;;;;;;20.78;52.20;101807.00;4942598;29;20051;-64
2023/09/30 11:06:21;;;;;;;19.60;4.35;;;;;;;19.80;55.86;101803.34;4940809;29;20460;-66
2023/09/30 11:08:54;;;;;;;15.30;3.55;;;;;;;19.20;57.07;101802.66;4942020;29;20051;-64
2023/09/30 11:11:44;;;;;;;15.10;3.28;;;;;;;19.53;57.70;101802.19;4941652;29;20058;-65
2023/09/30 11:14:28;;;;;;;18.33;3.75;;;;;;;20.10;55.58;101798.53;4941471;29;20080;-64
2023/09/30 11:17:00;;;;;;;16.20;3.70;;;;;;;19.60;55.54;101804.97;4942442;29;20051;-63
2023/09/30 11:19:45;;;;;;;16.80;3.10;;;;;;;19.02;57.60;101803.06;4963321;28;20424;-63
2023/09/30 11:22:13;;;;;;;13.90;2.95;;;;;;;18.77;59.62;101804.38;4972286;28;20054;-63